VEJS/IXW METAR and TAF weather

Enter ICAO airport designator
Station Type Date Time Source
VEJS METAR 2022/11/30 11:00 UTC NOAA

VEJS 301100Z 00000KT 4000 HZ NSC 28/14 Q1013


Station Type Date Time Source
VEJS Decoded METAR 2022/11/30 11:00 UTC NOAA

Jamshedpur, India (VEJS) 22-49N 086-11E 142M
Nov 30, 2022 - 06:00 AM EST / 2022.11.30 1100 UTC
Wind: Calm:0
Visibility: 2 mile(s):0
Weather: haze
Temperature: 82 F (28 C)
Dew Point: 57 F (14 C)
Relative Humidity: 42%
Pressure (altimeter): 29.91 in. Hg (1013 hPa)
ob: VEJS 301100Z 00000KT 4000 HZ NSC 28/14 Q1013
cycle: 11

Station Type Date Time Source
VEJS TAF 2009/11/01 09:00 UTC NOAA

TAF VEJS 010900Z 0112/0121 36004KT 2500 HZ FEW020 SCT025 SCT100
BECMG 0116/0118 00000KT 2000 HZ FEW018 SCT
BECMG 0119/0121 00000KT 1600 BR

Example: see airport list